Time;durP1;ratioP1;P1;durP2;ratioP2;P2;SDS_P1;SDS_P2;PMS_P1;PMS_P2;Temp;Humidity;BMP_temperature;BMP_pressure;BME280_temperature;BME280_humidity;BME280_pressure;Samples;Min_cycle;Max_cycle;Signal;HPM_P1;HPM_P2
2023/04/20 00:01:52;;;;;;;6.40;2.53;;;;;;;;;;4963927;28;92963;-68
2023/04/20 00:04:19;;;;;;;2.88;1.90;;;;;;;;;;4973668;28;93536;-68
2023/04/20 00:06:45;;;;;;;4.07;2.00;;;;;;;;;;4965841;28;92509;-68
2023/04/20 00:09:12;;;;;;;3.35;2.22;;;;;;;;;;4972170;28;94823;-68
2023/04/20 00:11:39;;;;;;;2.63;2.17;;;;;;;;;;4974068;28;93509;-67
2023/04/20 00:14:05;;;;;;;4.18;2.25;;;;;;;;;;4973310;28;92464;-68
2023/04/20 00:16:31;;;;;;;15.80;2.40;;;;;;;;;;4965117;28;94276;-68
2023/04/20 00:18:58;;;;;;;3.53;2.00;;;;;;;;;;4958426;28;92650;-68
2023/04/20 00:21:25;;;;;;;8.70;2.28;;;;;;;;;;4954446;28;93489;-68
2023/04/20 00:23:51;;;;;;;7.35;2.03;;;;;;;;;;4955074;28;94444;-68
2023/04/20 00:26:18;;;;;;;5.40;2.15;;;;;;;;;;4954731;28;91808;-68
2023/04/20 00:28:44;;;;;;;8.07;2.35;;;;;;;;;;4965521;28;92398;-68
2023/04/20 00:31:10;;;;;;;5.55;2.20;;;;;;;;;;4970193;28;93404;-68
2023/04/20 00:33:36;;;;;;;3.25;2.28;;;;;;;;;;4954374;28;94937;-68
2023/04/20 00:36:03;;;;;;;3.28;2.25;;;;;;;;;;4966649;28;95521;-68
2023/04/20 00:38:29;;;;;;;12.23;2.60;;;;;;;;;;4971892;28;92523;-68
2023/04/20 00:40:56;;;;;;;5.50;2.50;;;;;;;;;;4959865;28;93152;-68
2023/04/20 00:43:23;;;;;;;7.47;2.40;;;;;;;;;;4970753;28;94401;-68
2023/04/20 00:45:51;;;;;;;6.32;2.60;;;;;;;;;;4967598;28;94029;-68
2023/04/20 00:48:17;;;;;;;4.88;2.38;;;;;;;;;;4970712;28;94094;-68
2023/04/20 00:50:44;;;;;;;7.30;2.97;;;;;;;;;;4970505;28;92716;-68
2023/04/20 00:53:11;;;;;;;10.48;3.25;;;;;;;;;;4966320;28;92554;-68
2023/04/20 00:55:38;;;;;;;4.35;2.67;;;;;;;;;;4955220;28;93210;-68
2023/04/20 00:58:05;;;;;;;5.00;2.55;;;;;;;;;;4971519;28;96556;-68
2023/04/20 01:00:31;;;;;;;5.10;2.50;;;;;;;;;;4961559;28;96753;-69
2023/04/20 01:02:58;;;;;;;6.40;2.70;;;;;;;;;;4975113;28;93423;-68
2023/04/20 01:05:25;;;;;;;3.67;2.63;;;;;;;;;;4965945;28;92524;-68
2023/04/20 01:07:52;;;;;;;3.60;2.40;;;;;;;;;;4960440;28;93130;-68
2023/04/20 01:10:18;;;;;;;12.57;3.03;;;;;;;;;;4976672;28;93501;-68
2023/04/20 01:12:44;;;;;;;3.90;2.75;;;;;;;;;;4976985;28;92646;-68
2023/04/20 01:15:11;;;;;;;5.13;2.90;;;;;;;;;;4966279;28;93172;-68
2023/04/20 01:17:38;;;;;;;6.43;2.83;;;;;;;;;;4960138;28;94766;-69
2023/04/20 01:20:10;;;;;;;5.13;2.78;;;;;;;;;;4960330;28;92471;-68
2023/04/20 01:22:43;;;;;;;4.38;3.25;;;;;;;;;;4956104;28;96863;-69
2023/04/20 01:25:09;;;;;;;5.38;2.92;;;;;;;;;;4956983;28;92454;-68
2023/04/20 01:27:36;;;;;;;6.43;2.92;;;;;;;;;;4956971;28;93096;-69
2023/04/20 01:30:02;;;;;;;4.03;2.55;;;;;;;;;;4956870;28;93424;-68
2023/04/20 01:32:29;;;;;;;4.85;2.70;;;;;;;;;;4971051;28;92510;-69
2023/04/20 01:34:55;;;;;;;4.00;2.60;;;;;;;;;;4975983;28;93212;-68
2023/04/20 01:37:21;;;;;;;6.00;2.70;;;;;;;;;;4975940;28;92425;-68
2023/04/20 01:39:47;;;;;;;4.45;2.60;;;;;;;;;;4972251;28;92696;-68
2023/04/20 01:42:14;;;;;;;9.10;2.83;;;;;;;;;;4959624;28;93832;-68
2023/04/20 01:44:40;;;;;;;12.15;3.38;;;;;;;;;;4974384;28;92512;-69
2023/04/20 01:47:06;;;;;;;8.25;2.90;;;;;;;;;;4975005;28;94762;-68
2023/04/20 01:49:33;;;;;;;6.57;2.83;;;;;;;;;;4973757;28;94505;-68
2023/04/20 01:51:59;;;;;;;3.95;2.55;;;;;;;;;;4969003;28;92472;-68
2023/04/20 01:54:26;;;;;;;3.80;2.65;;;;;;;;;;4967356;28;94230;-68
2023/04/20 01:56:52;;;;;;;5.53;2.75;;;;;;;;;;4974099;28;93554;-68
2023/04/20 01:59:18;;;;;;;6.95;2.85;;;;;;;;;;4971622;28;92545;-68
2023/04/20 02:01:45;;;;;;;4.53;2.50;;;;;;;;;;4966960;28;93046;-68
2023/04/20 02:04:11;;;;;;;10.00;2.85;;;;;;;;;;4960145;28;92563;-68
2023/04/20 02:06:37;;;;;;;3.78;2.95;;;;;;;;;;4958297;28;93490;-68
2023/04/20 02:09:04;;;;;;;5.07;3.15;;;;;;;;;;4975635;28;93440;-69
2023/04/20 02:11:30;;;;;;;3.22;2.80;;;;;;;;;;4971164;28;98137;-68
2023/04/20 02:13:56;;;;;;;11.75;2.80;;;;;;;;;;4970950;28;95658;-68
2023/04/20 02:16:23;;;;;;;6.05;2.92;;;;;;;;;;4965700;28;93508;-68
2023/04/20 02:18:49;;;;;;;10.00;3.28;;;;;;;;;;4974153;28;92619;-68
2023/04/20 02:21:16;;;;;;;9.30;3.20;;;;;;;;;;4956419;28;93252;-68
2023/04/20 02:23:42;;;;;;;7.88;2.90;;;;;;;;;;4956705;28;94389;-68
2023/04/20 02:26:08;;;;;;;9.00;2.80;;;;;;;;;;4958740;28;92536;-68
2023/04/20 02:28:35;;;;;;;4.53;3.00;;;;;;;;;;4969782;28;94000;-68
2023/04/20 02:31:01;;;;;;;3.88;2.95;;;;;;;;;;4970624;28;92470;-68
2023/04/20 02:33:28;;;;;;;6.18;2.95;;;;;;;;;;4970313;28;94283;-68
2023/04/20 02:35:54;;;;;;;5.97;2.88;;;;;;;;;;4972791;28;95825;-68
2023/04/20 02:38:21;;;;;;;12.77;3.42;;;;;;;;;;4974587;28;92433;-68
2023/04/20 02:40:47;;;;;;;10.25;2.90;;;;;;;;;;4975330;28;95124;-68
2023/04/20 02:43:13;;;;;;;5.50;3.00;;;;;;;;;;4973692;28;93307;-68
2023/04/20 02:45:39;;;;;;;8.02;2.92;;;;;;;;;;4977012;28;92619;-68
2023/04/20 02:48:06;;;;;;;3.72;2.85;;;;;;;;;;4973066;28;94372;-68
2023/04/20 02:50:33;;;;;;;4.68;3.00;;;;;;;;;;4969024;28;92599;-68
2023/04/20 02:53:00;;;;;;;5.32;3.17;;;;;;;;;;4969834;28;93133;-68
2023/04/20 02:55:26;;;;;;;4.25;2.80;;;;;;;;;;4972247;28;93456;-68
2023/04/20 02:57:52;;;;;;;10.30;3.30;;;;;;;;;;4973284;28;92582;-68
2023/04/20 03:00:19;;;;;;;10.95;3.38;;;;;;;;;;4968375;28;94955;-69
2023/04/20 03:02:45;;;;;;;11.32;3.53;;;;;;;;;;4970330;28;94290;-69
2023/04/20 03:05:12;;;;;;;8.70;3.30;;;;;;;;;;4963003;28;92450;-68
2023/04/20 03:07:38;;;;;;;5.00;2.78;;;;;;;;;;4972185;28;93174;-68
2023/04/20 03:10:05;;;;;;;4.40;2.60;;;;;;;;;;4971993;28;92542;-68
2023/04/20 03:12:32;;;;;;;6.30;3.00;;;;;;;;;;4972617;28;92631;-68
2023/04/20 03:14:58;;;;;;;10.10;3.30;;;;;;;;;;4972093;28;94437;-70
2023/04/20 03:17:24;;;;;;;7.28;2.67;;;;;;;;;;4974446;28;91751;-68
2023/04/20 03:19:50;;;;;;;3.45;2.53;;;;;;;;;;4969578;28;92534;-69
2023/04/20 03:22:19;;;;;;;4.68;2.83;;;;;;;;;;4968328;28;92418;-68
2023/04/20 03:24:46;;;;;;;5.45;2.95;;;;;;;;;;4971169;28;95259;-68
2023/04/20 03:27:13;;;;;;;3.58;2.60;;;;;;;;;;4970315;28;95858;-69
2023/04/20 03:29:39;;;;;;;4.18;2.83;;;;;;;;;;4959049;28;93290;-68
2023/04/20 03:32:05;;;;;;;5.28;3.15;;;;;;;;;;4972993;28;94579;-68
2023/04/20 03:34:32;;;;;;;5.88;3.30;;;;;;;;;;4957887;28;94459;-68
2023/04/20 03:36:58;;;;;;;13.23;3.20;;;;;;;;;;4974206;28;92400;-68
2023/04/20 03:39:24;;;;;;;14.93;3.67;;;;;;;;;;4971270;28;94136;-68
2023/04/20 03:41:51;;;;;;;10.48;4.13;;;;;;;;;;4960131;28;92687;-68
2023/04/20 03:44:17;;;;;;;6.18;3.15;;;;;;;;;;4971096;28;92650;-68
2023/04/20 03:46:43;;;;;;;17.10;3.75;;;;;;;;;;4973710;28;94162;-68
2023/04/20 03:49:10;;;;;;;4.13;2.60;;;;;;;;;;4970178;28;95886;-69
2023/04/20 03:51:36;;;;;;;8.75;3.00;;;;;;;;;;4976364;28;92420;-68
2023/04/20 03:54:02;;;;;;;7.80;3.60;;;;;;;;;;4968452;28;94406;-68
2023/04/20 03:56:29;;;;;;;6.47;2.80;;;;;;;;;;4971432;28;92609;-68
2023/04/20 03:58:55;;;;;;;10.82;3.75;;;;;;;;;;4966590;28;93164;-68
2023/04/20 04:01:21;;;;;;;6.90;2.63;;;;;;;;;;4970504;28;94518;-68
2023/04/20 04:03:47;;;;;;;6.25;2.88;;;;;;;;;;4969090;28;92435;-68
2023/04/20 04:06:14;;;;;;;8.88;2.90;;;;;;;;;;4967306;28;93076;-68
2023/04/20 04:08:41;;;;;;;5.85;2.80;;;;;;;;;;4973815;28;93564;-68
2023/04/20 04:11:07;;;;;;;10.40;2.70;;;;;;;;;;4972933;28;92647;-68
2023/04/20 04:13:34;;;;;;;4.38;2.53;;;;;;;;;;4971743;28;94874;-68
2023/04/20 04:16:00;;;;;;;7.57;2.80;;;;;;;;;;4973791;28;92518;-68
2023/04/20 04:18:31;;;;;;;6.05;2.80;;;;;;;;;;4969109;28;92488;-68
2023/04/20 04:20:57;;;;;;;;;;;;;;;;;;4967262;28;93377;-66
2023/04/20 04:23:23;;;;;;;6.68;2.50;;;;;;;;;;4973253;28;116868;-68
2023/04/20 04:25:50;;;;;;;11.05;2.92;;;;;;;;;;4962508;28;94480;-68
2023/04/20 04:28:16;;;;;;;4.78;2.83;;;;;;;;;;4973593;28;94448;-69
2023/04/20 04:30:43;;;;;;;7.57;3.00;;;;;;;;;;4973097;28;91789;-68
2023/04/20 04:33:10;;;;;;;7.00;2.88;;;;;;;;;;4973428;28;93594;-69
2023/04/20 04:35:39;;;;;;;8.15;2.63;;;;;;;;;;4975613;28;94317;-68
2023/04/20 04:38:06;;;;;;;5.80;2.53;;;;;;;;;;4961785;28;94948;-68
2023/04/20 04:40:33;;;;;;;5.43;2.67;;;;;;;;;;4973321;28;93536;-68
2023/04/20 04:42:59;;;;;;;9.43;2.92;;;;;;;;;;4977007;28;92397;-68
2023/04/20 04:45:25;;;;;;;5.82;2.40;;;;;;;;;;4975254;28;92909;-68
2023/04/20 04:47:52;;;;;;;7.82;2.72;;;;;;;;;;4974447;28;93489;-68
2023/04/20 04:50:19;;;;;;;7.28;2.22;;;;;;;;;;4976400;28;94243;-68
2023/04/20 04:52:45;;;;;;;4.85;2.30;;;;;;;;;;4975699;28;93124;-68
2023/04/20 04:55:11;;;;;;;7.85;2.63;;;;;;;;;;4978397;28;92731;-68
2023/04/20 04:57:41;;;;;;;4.72;2.50;;;;;;;;;;4969176;28;92881;-68
2023/04/20 05:00:11;;;;;;;8.13;2.47;;;;;;;;;;4975290;28;94482;-69
2023/04/20 05:02:38;;;;;;;7.55;2.60;;;;;;;;;;4964902;28;94918;-68
2023/04/20 05:05:05;;;;;;;4.95;2.63;;;;;;;;;;4975488;28;95519;-68
2023/04/20 05:07:35;;;;;;;4.40;2.25;;;;;;;;;;4971409;28;95094;-69
2023/04/20 05:10:01;;;;;;;5.88;2.33;;;;;;;;;;4970941;28;92444;-68
2023/04/20 05:12:27;;;;;;;8.32;2.25;;;;;;;;;;4968800;28;92744;-70
2023/04/20 05:14:53;;;;;;;12.65;2.63;;;;;;;;;;4960862;28;94399;-69
2023/04/20 05:17:20;;;;;;;6.28;2.50;;;;;;;;;;4979988;28;92546;-68
2023/04/20 05:19:46;;;;;;;7.93;2.80;;;;;;;;;;4970079;28;92858;-69
2023/04/20 05:22:12;;;;;;;6.60;3.03;;;;;;;;;;4972889;28;92606;-69
2023/04/20 05:24:39;;;;;;;9.27;2.60;;;;;;;;;;4969671;28;93143;-69
2023/04/20 05:27:05;;;;;;;5.90;2.58;;;;;;;;;;4967324;28;95723;-69
2023/04/20 05:29:31;;;;;;;8.40;2.88;;;;;;;;;;4961955;28;92506;-69
2023/04/20 05:31:58;;;;;;;5.63;2.13;;;;;;;;;;4976638;28;93037;-69
2023/04/20 05:34:24;;;;;;;9.32;2.70;;;;;;;;;;4972527;28;94220;-70
2023/04/20 05:36:51;;;;;;;4.85;2.40;;;;;;;;;;4971390;28;92619;-68
2023/04/20 05:39:17;;;;;;;3.70;2.35;;;;;;;;;;4968485;28;94264;-69
2023/04/20 05:41:45;;;;;;;4.68;2.67;;;;;;;;;;4964471;28;92843;-69
2023/04/20 05:44:11;;;;;;;4.88;2.42;;;;;;;;;;4972322;28;94186;-68
2023/04/20 05:46:37;;;;;;;12.68;2.53;;;;;;;;;;4974547;28;93529;-69
2023/04/20 05:49:03;;;;;;;5.05;2.22;;;;;;;;;;4973032;28;92503;-69
2023/04/20 05:51:32;;;;;;;5.05;2.33;;;;;;;;;;4965434;28;95230;-68
2023/04/20 05:54:00;;;;;;;8.55;2.58;;;;;;;;;;4964152;28;93178;-69
2023/04/20 05:56:26;;;;;;;6.32;2.60;;;;;;;;;;4961615;28;92428;-68
2023/04/20 05:58:55;;;;;;;7.28;2.72;;;;;;;;;;4975665;28;94134;-68
2023/04/20 06:01:22;;;;;;;7.53;2.50;;;;;;;;;;4975188;28;93585;-69
2023/04/20 06:03:48;;;;;;;7.10;2.70;;;;;;;;;;4966411;28;93149;-68
2023/04/20 06:06:15;;;;;;;3.58;2.40;;;;;;;;;;4956068;28;93149;-69
2023/04/20 06:08:42;;;;;;;5.00;2.40;;;;;;;;;;4966644;28;91941;-68
2023/04/20 06:11:08;;;;;;;5.63;2.30;;;;;;;;;;4962025;28;93246;-68
2023/04/20 06:13:35;;;;;;;10.05;2.45;;;;;;;;;;4963768;28;94465;-68
2023/04/20 06:16:01;;;;;;;4.97;2.95;;;;;;;;;;4964867;28;95096;-69
2023/04/20 06:18:28;;;;;;;6.90;2.70;;;;;;;;;;4971228;28;94142;-69
2023/04/20 06:20:54;;;;;;;7.53;2.83;;;;;;;;;;4960499;28;93641;-68
2023/04/20 06:23:21;;;;;;;5.35;2.72;;;;;;;;;;4958944;28;92387;-69
2023/04/20 06:25:47;;;;;;;6.40;2.92;;;;;;;;;;4958972;28;93408;-68
2023/04/20 06:28:13;;;;;;;9.68;2.55;;;;;;;;;;4971924;28;93764;-68
2023/04/20 06:30:39;;;;;;;7.28;2.90;;;;;;;;;;4969108;28;94270;-68
2023/04/20 06:33:06;;;;;;;8.00;2.80;;;;;;;;;;4969230;28;92490;-68
2023/04/20 06:35:34;;;;;;;7.75;2.80;;;;;;;;;;4965776;28;92799;-68
2023/04/20 06:38:01;;;;;;;4.93;2.72;;;;;;;;;;4974536;28;93117;-68
2023/04/20 06:40:28;;;;;;;5.07;3.00;;;;;;;;;;4960966;28;96824;-68
2023/04/20 06:42:54;;;;;;;5.47;2.97;;;;;;;;;;4972279;28;92551;-68
2023/04/20 06:45:20;;;;;;;5.30;2.78;;;;;;;;;;4977139;28;94260;-68
2023/04/20 06:47:47;;;;;;;4.18;2.55;;;;;;;;;;4974684;28;92482;-68
2023/04/20 06:50:13;;;;;;;3.75;2.65;;;;;;;;;;4972149;28;93186;-68
2023/04/20 06:52:40;;;;;;;6.00;2.65;;;;;;;;;;4972060;28;93531;-68
2023/04/20 06:55:06;;;;;;;6.50;3.00;;;;;;;;;;4969295;28;93290;-68
2023/04/20 06:57:33;;;;;;;7.13;3.10;;;;;;;;;;4972532;28;94288;-68
2023/04/20 06:59:59;;;;;;;6.53;3.08;;;;;;;;;;4973741;28;93432;-68
2023/04/20 07:02:26;;;;;;;5.65;2.75;;;;;;;;;;4969549;28;92493;-68
2023/04/20 07:04:52;;;;;;;7.88;2.60;;;;;;;;;;4967585;28;95264;-68
2023/04/20 07:07:19;;;;;;;7.20;2.80;;;;;;;;;;4973490;28;92459;-68
2023/04/20 07:09:45;;;;;;;5.47;2.67;;;;;;;;;;4966882;28;93137;-68
2023/04/20 07:12:14;;;;;;;9.00;2.78;;;;;;;;;;4974492;28;94345;-68
2023/04/20 07:14:40;;;;;;;18.13;5.15;;;;;;;;;;4972765;28;92539;-68
2023/04/20 07:17:07;;;;;;;6.95;2.90;;;;;;;;;;4967070;28;94233;-68
2023/04/20 07:19:33;;;;;;;5.45;2.88;;;;;;;;;;4969271;28;93602;-68
2023/04/20 07:22:00;;;;;;;5.70;3.00;;;;;;;;;;4970279;28;91685;-68
2023/04/20 07:24:27;;;;;;;7.70;3.00;;;;;;;;;;4971963;28;92470;-68
2023/04/20 07:26:54;;;;;;;11.90;3.92;;;;;;;;;;4971712;28;94484;-68
2023/04/20 07:29:20;;;;;;;9.52;2.97;;;;;;;;;;4962076;28;95009;-67
2023/04/20 07:31:47;;;;;;;5.03;3.40;;;;;;;;;;4973927;28;93597;-68
2023/04/20 07:34:13;;;;;;;7.32;3.08;;;;;;;;;;4971668;28;92510;-68
2023/04/20 07:36:39;;;;;;;10.10;3.67;;;;;;;;;;4968494;28;94283;-68
2023/04/20 07:39:06;;;;;;;9.57;2.90;;;;;;;;;;4974804;28;94183;-68
2023/04/20 07:41:32;;;;;;;6.05;2.72;;;;;;;;;;4973865;28;95082;-68
2023/04/20 07:43:59;;;;;;;11.90;3.20;;;;;;;;;;4966905;28;93015;-68
2023/04/20 07:46:27;;;;;;;9.48;3.83;;;;;;;;;;4966654;28;92626;-67
2023/04/20 07:48:53;;;;;;;6.63;2.53;;;;;;;;;;4963703;28;92575;-68
2023/04/20 07:51:19;;;;;;;6.82;2.70;;;;;;;;;;4974270;28;93001;-67
2023/04/20 07:53:46;;;;;;;8.23;2.92;;;;;;;;;;4965348;28;96684;-67
2023/04/20 07:56:12;;;;;;;12.45;3.30;;;;;;;;;;4968905;28;96537;-67
2023/04/20 07:58:39;;;;;;;4.43;2.70;;;;;;;;;;4965019;28;93408;-66
2023/04/20 08:01:06;;;;;;;4.63;2.78;;;;;;;;;;4964125;28;92627;-74
2023/04/20 08:03:32;;;;;;;5.80;2.92;;;;;;;;;;4970988;28;94147;-66
2023/04/20 08:05:59;;;;;;;11.70;3.33;;;;;;;;;;4972605;28;93430;-67
2023/04/20 08:08:26;;;;;;;6.07;2.60;;;;;;;;;;4971396;28;92403;-67
2023/04/20 08:10:54;;;;;;;5.03;3.03;;;;;;;;;;4977752;28;93163;-67
2023/04/20 08:13:21;;;;;;;8.90;3.20;;;;;;;;;;4973749;28;92416;-67
2023/04/20 08:15:47;;;;;;;4.25;2.88;;;;;;;;;;4971373;28;92891;-68
2023/04/20 08:18:14;;;;;;;4.38;2.78;;;;;;;;;;4972630;28;97064;-66
2023/04/20 08:20:41;;;;;;;4.68;2.58;;;;;;;;;;4959073;28;92821;-67
2023/04/20 08:23:07;;;;;;;9.00;3.10;;;;;;;;;;4953883;28;93097;-66
2023/04/20 08:25:33;;;;;;;8.27;3.10;;;;;;;;;;4953671;28;93471;-67
2023/04/20 08:27:59;;;;;;;6.40;3.03;;;;;;;;;;4954560;28;92585;-67
2023/04/20 08:30:26;;;;;;;5.72;2.90;;;;;;;;;;4960858;28;94217;-67
2023/04/20 08:32:52;;;;;;;7.32;2.92;;;;;;;;;;4974271;28;93434;-68
2023/04/20 08:35:19;;;;;;;6.82;2.88;;;;;;;;;;4967782;28;94464;-67
2023/04/20 08:37:45;;;;;;;4.28;3.10;;;;;;;;;;4960587;28;92472;-67
2023/04/20 08:40:11;;;;;;;7.18;3.70;;;;;;;;;;4963589;28;92486;-66
2023/04/20 08:42:38;;;;;;;4.43;3.22;;;;;;;;;;4952808;28;94788;-67
2023/04/20 08:45:04;;;;;;;4.80;3.03;;;;;;;;;;4960943;28;94770;-68
2023/04/20 08:47:32;;;;;;;7.32;3.17;;;;;;;;;;4970208;28;92657;-67
2023/04/20 08:49:59;;;;;;;3.63;3.30;;;;;;;;;;4962942;28;93129;-68
2023/04/20 08:52:25;;;;;;;6.68;3.30;;;;;;;;;;4961113;28;94438;-68
2023/04/20 08:54:51;;;;;;;6.43;3.28;;;;;;;;;;4965591;28;92725;-68
2023/04/20 08:57:23;;;;;;;5.47;3.30;;;;;;;;;;4969550;28;95400;-68
2023/04/20 08:59:50;;;;;;;10.52;3.67;;;;;;;;;;4961749;28;91887;-68
2023/04/20 09:02:16;;;;;;;9.27;3.40;;;;;;;;;;4961602;28;94668;-68
2023/04/20 09:04:47;;;;;;;6.72;3.80;;;;;;;;;;4967968;28;92478;-68
2023/04/20 09:07:18;;;;;;;6.57;3.47;;;;;;;;;;4967197;28;95573;-68
2023/04/20 09:09:54;;;;;;;5.53;3.55;;;;;;;;;;4969545;28;95707;-69
2023/04/20 09:12:21;;;;;;;6.40;3.80;;;;;;;;;;4970538;28;95538;-69
2023/04/20 09:14:48;;;;;;;5.60;3.10;;;;;;;;;;4976622;28;92608;-69
2023/04/20 09:17:16;;;;;;;5.10;3.50;;;;;;;;;;4973735;28;94442;-69
2023/04/20 09:19:43;;;;;;;6.40;3.70;;;;;;;;;;4968227;28;93942;-69
2023/04/20 09:22:09;;;;;;;5.00;4.18;;;;;;;;;;4968868;28;93200;-69
2023/04/20 09:24:37;;;;;;;5.22;3.42;;;;;;;;;;4974387;28;93623;-69
2023/04/20 09:27:13;;;;;;;7.50;3.45;;;;;;;;;;4969840;28;92521;-69
2023/04/20 09:29:40;;;;;;;8.25;3.72;;;;;;;;;;4976690;28;93073;-69
2023/04/20 09:32:06;;;;;;;6.40;3.80;;;;;;;;;;4971155;28;96688;-69
2023/04/20 09:34:45;;;;;;;14.30;3.90;;;;;;;;;;4973890;28;92920;-69
2023/04/20 09:37:14;;;;;;;8.75;3.92;;;;;;;;;;4959537;28;94214;-69
2023/04/20 09:39:42;;;;;;;6.00;3.78;;;;;;;;;;4960488;28;94021;-69
2023/04/20 09:42:10;;;;;;;7.70;3.95;;;;;;;;;;4972350;28;94188;-69
2023/04/20 09:44:37;;;;;;;5.40;3.70;;;;;;;;;;4956336;28;93650;-69
2023/04/20 09:47:04;;;;;;;6.88;3.80;;;;;;;;;;4956472;28;92587;-69
2023/04/20 09:49:30;;;;;;;6.22;3.67;;;;;;;;;;4963151;28;93124;-69
2023/04/20 09:52:00;;;;;;;3.67;3.30;;;;;;;;;;4975530;28;93708;-70
2023/04/20 09:54:27;;;;;;;8.23;4.25;;;;;;;;;;4975614;28;92401;-69
2023/04/20 09:56:53;;;;;;;4.25;3.50;;;;;;;;;;4974667;28;94869;-69
2023/04/20 09:59:20;;;;;;;7.93;3.75;;;;;;;;;;4975981;28;94193;-70
2023/04/20 10:01:46;;;;;;;9.02;3.58;;;;;;;;;;4971466;28;93047;-69
2023/04/20 10:04:13;;;;;;;3.75;3.17;;;;;;;;;;4975677;28;94905;-69
2023/04/20 10:06:50;;;;;;;12.77;3.92;;;;;;;;;;4966801;28;92611;-69
2023/04/20 10:09:24;;;;;;;5.55;3.25;;;;;;;;;;4976132;28;92486;-69
2023/04/20 10:11:51;;;;;;;10.60;3.83;;;;;;;;;;4974875;28;94210;-69
2023/04/20 10:14:24;;;;;;;7.53;3.88;;;;;;;;;;4959045;28;91725;-69
2023/04/20 10:16:59;;;;;;;7.35;3.83;;;;;;;;;;4981652;28;93609;-69
2023/04/20 10:19:38;;;;;;;5.60;3.70;;;;;;;;;;4989074;28;93630;-69
2023/04/20 10:22:05;;;;;;;12.82;4.15;;;;;;;;;;4972719;28;95061;-69
2023/04/20 10:24:31;;;;;;;6.25;3.42;;;;;;;;;;4973818;28;93774;-69
2023/04/20 10:26:58;;;;;;;10.18;3.42;;;;;;;;;;4974304;28;92495;-69
2023/04/20 10:29:25;;;;;;;7.85;3.92;;;;;;;;;;4972569;28;94369;-69
2023/04/20 10:31:52;;;;;;;8.10;4.30;;;;;;;;;;4973315;28;94810;-69
2023/04/20 10:34:34;;;;;;;7.53;3.78;;;;;;;;;;4974324;28;92505;-69
2023/04/20 10:37:08;;;;;;;9.43;4.43;;;;;;;;;;4975551;28;92748;-69
2023/04/20 10:39:36;;;;;;;5.88;3.78;;;;;;;;;;4973832;28;93047;-69
2023/04/20 10:42:03;;;;;;;7.15;4.00;;;;;;;;;;4970802;28;92667;-69
2023/04/20 10:44:29;;;;;;;5.30;3.80;;;;;;;;;;4977608;28;93167;-69
2023/04/20 10:46:56;;;;;;;7.97;4.22;;;;;;;;;;4972168;28;94913;-69
2023/04/20 10:49:27;;;;;;;5.10;4.00;;;;;;;;;;4975239;28;96679;-69
2023/04/20 10:51:54;;;;;;;5.95;4.18;;;;;;;;;;4975264;28;94610;-69
2023/04/20 10:54:21;;;;;;;6.45;3.80;;;;;;;;;;4971518;28;93062;-69
2023/04/20 10:56:48;;;;;;;4.65;3.80;;;;;;;;;;4975367;28;93114;-69
2023/04/20 10:59:16;;;;;;;9.52;4.40;;;;;;;;;;4968615;28;93751;-69
2023/04/20 11:01:43;;;;;;;5.78;3.75;;;;;;;;;;4969211;28;92497;-69
2023/04/20 11:04:10;;;;;;;8.98;3.72;;;;;;;;;;4977028;28;93298;-69
2023/04/20 11:06:38;;;;;;;8.20;3.65;;;;;;;;;;4975328;28;92535;-69
2023/04/20 11:09:18;;;;;;;7.82;4.25;;;;;;;;;;4975297;28;93181;-69
2023/04/20 11:11:45;;;;;;;6.03;3.58;;;;;;;;;;4971188;28;96138;-69
2023/04/20 11:14:12;;;;;;;7.45;3.20;;;;;;;;;;4973102;28;92558;-68
2023/04/20 11:16:38;;;;;;;5.10;3.30;;;;;;;;;;4964665;28;93061;-69
2023/04/20 11:19:08;;;;;;;4.40;3.17;;;;;;;;;;4973463;28;94546;-68
2023/04/20 11:21:36;;;;;;;9.10;3.20;;;;;;;;;;4972509;28;93036;-69
2023/04/20 11:24:03;;;;;;;8.32;3.40;;;;;;;;;;4974223;28;93787;-70
2023/04/20 11:26:36;;;;;;;10.43;3.53;;;;;;;;;;4977018;28;93451;-69
2023/04/20 11:29:03;;;;;;;4.22;3.50;;;;;;;;;;4974726;28;93511;-69
2023/04/20 11:31:29;;;;;;;5.28;3.05;;;;;;;;;;4972348;28;93127;-69
2023/04/20 11:33:56;;;;;;;3.13;2.65;;;;;;;;;;4973556;28;92645;-68
2023/04/20 11:36:24;;;;;;;5.20;3.20;;;;;;;;;;4972738;28;94937;-69
2023/04/20 11:38:50;;;;;;;7.18;3.47;;;;;;;;;;4973544;28;93358;-69
2023/04/20 11:41:17;;;;;;;6.88;3.35;;;;;;;;;;4974370;28;92507;-69
2023/04/20 11:43:44;;;;;;;5.05;3.40;;;;;;;;;;4972646;28;94205;-68
2023/04/20 11:46:13;;;;;;;5.32;3.45;;;;;;;;;;4961717;28;93308;-69
2023/04/20 11:48:40;;;;;;;9.50;3.75;;;;;;;;;;4961032;28;92509;-69
2023/04/20 11:51:06;;;;;;;7.35;3.47;;;;;;;;;;4970479;28;93988;-69
2023/04/20 11:53:33;;;;;;;4.28;3.05;;;;;;;;;;4960809;28;94376;-69
2023/04/20 11:55:59;;;;;;;3.33;2.90;;;;;;;;;;4974680;28;92426;-69
2023/04/20 11:58:26;;;;;;;4.70;3.22;;;;;;;;;;4970696;28;93881;-68
2023/04/20 12:00:52;;;;;;;6.22;3.17;;;;;;;;;;4973174;28;94972;-69
2023/04/20 12:03:18;;;;;;;5.63;3.10;;;;;;;;;;4971203;28;95551;-69
2023/04/20 12:05:45;;;;;;;4.40;3.30;;;;;;;;;;4975039;28;94422;-69
2023/04/20 12:08:11;;;;;;;6.97;3.50;;;;;;;;;;4960425;28;92466;-70
2023/04/20 12:10:38;;;;;;;4.97;3.10;;;;;;;;;;4984340;28;93114;-69
2023/04/20 12:13:05;;;;;;;7.72;3.28;;;;;;;;;;4992031;28;92535;-69
2023/04/20 12:15:31;;;;;;;5.97;3.15;;;;;;;;;;4996091;28;93009;-69
2023/04/20 12:17:58;;;;;;;4.15;3.42;;;;;;;;;;4982327;28;91710;-69
2023/04/20 12:20:24;;;;;;;3.97;2.80;;;;;;;;;;4974705;28;93014;-69
2023/04/20 12:22:51;;;;;;;6.70;3.30;;;;;;;;;;4992228;28;93289;-69
2023/04/20 12:25:17;;;;;;;4.85;3.40;;;;;;;;;;4992365;28;94684;-68
2023/04/20 12:27:43;;;;;;;8.40;3.70;;;;;;;;;;4982703;28;92390;-69
2023/04/20 12:30:10;;;;;;;4.18;3.40;;;;;;;;;;4974250;28;92227;-68
2023/04/20 12:32:36;;;;;;;3.63;3.10;;;;;;;;;;4993362;28;94456;-69
2023/04/20 12:35:02;;;;;;;6.32;3.40;;;;;;;;;;4995811;28;93052;-70
2023/04/20 12:37:29;;;;;;;4.88;3.15;;;;;;;;;;4996306;28;95051;-69
2023/04/20 12:39:56;;;;;;;4.28;3.20;;;;;;;;;;4980311;28;92550;-70
2023/04/20 12:42:22;;;;;;;4.22;3.42;;;;;;;;;;4974037;28;93244;-69
2023/04/20 12:44:51;;;;;;;4.60;3.50;;;;;;;;;;4974132;28;93359;-69
2023/04/20 12:47:17;;;;;;;6.88;3.80;;;;;;;;;;4972800;28;92529;-70
2023/04/20 12:49:44;;;;;;;8.25;4.60;;;;;;;;;;4974001;28;94861;-70
2023/04/20 12:52:10;;;;;;;7.07;3.72;;;;;;;;;;4972538;28;94793;-70
2023/04/20 12:54:36;;;;;;;4.93;3.95;;;;;;;;;;4977581;28;93462;-69
2023/04/20 12:57:03;;;;;;;5.47;3.75;;;;;;;;;;4973551;28;94601;-70
2023/04/20 12:59:29;;;;;;;4.95;3.67;;;;;;;;;;4977298;28;92456;-69
2023/04/20 13:01:55;;;;;;;7.65;3.63;;;;;;;;;;4975704;28;94218;-70
2023/04/20 13:04:22;;;;;;;6.20;3.63;;;;;;;;;;4963943;28;94469;-70
2023/04/20 13:06:49;;;;;;;9.88;3.97;;;;;;;;;;4957932;28;91707;-70
2023/04/20 13:09:15;;;;;;;6.45;3.95;;;;;;;;;;4975075;28;92631;-70
2023/04/20 13:11:42;;;;;;;7.18;3.95;;;;;;;;;;4969462;28;93513;-69
2023/04/20 13:14:08;;;;;;;4.68;3.65;;;;;;;;;;4959091;28;94778;-69
2023/04/20 13:16:34;;;;;;;5.60;4.00;;;;;;;;;;4962467;28;94179;-70
2023/04/20 13:19:01;;;;;;;22.75;4.40;;;;;;;;;;4972456;28;92444;-70
2023/04/20 13:21:28;;;;;;;9.90;3.63;;;;;;;;;;4966507;28;93002;-70
2023/04/20 13:23:54;;;;;;;8.43;3.90;;;;;;;;;;4956986;28;93417;-70
2023/04/20 13:26:22;;;;;;;9.00;4.05;;;;;;;;;;4955589;28;92463;-69
2023/04/20 13:28:48;;;;;;;7.18;4.35;;;;;;;;;;4957623;28;95075;-69
2023/04/20 13:31:15;;;;;;;5.80;4.05;;;;;;;;;;4966938;28;92148;-70
2023/04/20 13:33:41;;;;;;;8.82;4.10;;;;;;;;;;4976270;28;92682;-70
2023/04/20 13:36:07;;;;;;;8.30;3.75;;;;;;;;;;4979525;28;93177;-69
2023/04/20 13:38:34;;;;;;;6.57;4.45;;;;;;;;;;4972936;28;95368;-69
2023/04/20 13:41:00;;;;;;;6.40;4.40;;;;;;;;;;4975293;28;96556;-69
2023/04/20 13:43:26;;;;;;;7.70;3.88;;;;;;;;;;4976224;28;94797;-69
2023/04/20 13:45:53;;;;;;;5.35;3.65;;;;;;;;;;4976317;28;92386;-69
2023/04/20 13:48:20;;;;;;;9.05;4.45;;;;;;;;;;4964534;28;93176;-69
2023/04/20 13:50:46;;;;;;;7.60;3.75;;;;;;;;;;4962755;28;94236;-69
2023/04/20 13:53:12;;;;;;;6.35;3.90;;;;;;;;;;4973239;28;92444;-69
2023/04/20 13:55:39;;;;;;;5.43;3.88;;;;;;;;;;4974889;28;93151;-69
2023/04/20 13:58:05;;;;;;;11.02;4.32;;;;;;;;;;4972153;28;93343;-69
2023/04/20 14:00:31;;;;;;;8.88;3.80;;;;;;;;;;4976147;28;93100;-69
2023/04/20 14:03:00;;;;;;;8.73;4.22;;;;;;;;;;4971274;28;95971;-69
2023/04/20 14:05:27;;;;;;;7.47;4.07;;;;;;;;;;4975554;28;92472;-70
2023/04/20 14:07:53;;;;;;;58.50;5.95;;;;;;;;;;4971306;28;92510;-70
2023/04/20 14:10:20;;;;;;;16.92;4.97;;;;;;;;;;4974715;28;93916;-69
2023/04/20 14:12:47;;;;;;;7.20;4.40;;;;;;;;;;4974498;28;92509;-69
2023/04/20 14:15:13;;;;;;;7.55;4.50;;;;;;;;;;4975692;28;94261;-70
2023/04/20 14:17:40;;;;;;;8.50;4.07;;;;;;;;;;4973743;28;94495;-71
2023/04/20 14:20:06;;;;;;;9.40;4.53;;;;;;;;;;4969605;28;91700;-70
2023/04/20 14:22:35;;;;;;;6.63;4.20;;;;;;;;;;4960342;28;93766;-69
2023/04/20 14:25:05;;;;;;;7.75;4.75;;;;;;;;;;4975880;28;92425;-69
2023/04/20 14:27:31;;;;;;;18.55;4.75;;;;;;;;;;4969145;28;94828;-69
2023/04/20 14:29:57;;;;;;;6.05;4.45;;;;;;;;;;4962166;28;94453;-68
2023/04/20 14:32:24;;;;;;;5.88;4.60;;;;;;;;;;4974509;28;92548;-70
2023/04/20 14:34:50;;;;;;;8.30;4.70;;;;;;;;;;4974822;28;93157;-70
2023/04/20 14:37:16;;;;;;;7.60;4.75;;;;;;;;;;4973248;28;94246;-71
2023/04/20 14:39:43;;;;;;;9.25;4.28;;;;;;;;;;4975724;28;92597;-70